• Join FlightAware (Why Join?)
  • Login
  • US Flag 
09:32PM EST


 

Airport Tracker/Info


-or-


 

Live Flight TrackerFlight Track Log ✈ SWA3321 ✈ 11-Apr-2013 ✈ KMDW - KLAS

Flight Track Log - Related Links

Times and Time Zones

All times are in EDT time to prevent confusion due to time zone crossing. See the SWA3321 flight status page for this flight to view local times or setup timezone preferences in your user account.

Time Position Orientation Groundspeed Altitude Reporting Facility
EDT Latitude Longitude Course Direction KTS MPH feet Rate Location/Type
09:58AM 41.8500 -87.7667 263° West 242 278 3,200  Level Chicago TRACON
09:59AM 41.8333 -87.8500 255° West 224 258 6,700 3,060 Climbing Chicago TRACON
10:00AM 41.8167 -87.9333 255° West 271 312 9,400 2,520 Climbing Chicago TRACON
10:02AM 41.8128 -88.0522 268° West 291 335 12,100 2,040 Climbing Chicago Center
10:03AM 41.8056 -88.1839 266° West 349 402 14,000 3,180 Climbing Chicago Center
10:04AM 41.7300 -88.6218 263° West  Level FlightAware Approximate
10:04AM 41.7892 -88.3169 261° West 369 425 18,700  Level Chicago Center
10:05AM 41.7761 -88.4508 263° West 308 354 22,900 2,880 Climbing Chicago Center
10:06AM 41.7672 -88.5703 264° West 319 367 24,700 1,860 Climbing Chicago Center
10:07AM 41.7606 -88.6922 266° West 330 380 26,800 1,620 Climbing Chicago Center
10:08AM 41.7514 -88.8156 264° West 334 384 28,100 1,380 Climbing Chicago Center
10:09AM 41.7442 -88.9467 266° West 349 402 29,700 1,380 Climbing Chicago Center
10:10AM 41.7331 -89.1114 265° West 370 426 31,000 1,620 Climbing Chicago Center
10:11AM 41.7247 -89.2500 265° West 376 433 33,100 2,160 Climbing Chicago Center
10:12AM 41.7156 -89.3781 265° West 349 402 35,500 1,380 Climbing Chicago Center
10:13AM 41.7064 -89.4975 264° West 329 379 36,000 240 Climbing Chicago Center
10:14AM 41.6983 -89.6297 265° West 336 387 36,000  Level Chicago Center
10:15AM 41.6886 -89.7553 264° West 340 391 36,000  Level Chicago Center
10:16AM 41.6794 -89.8822 265° West 342 394 36,000  Level Chicago Center
10:17AM 41.6708 -90.0094 265° West 343 395 36,000  Level Chicago Center
10:18AM 41.6597 -90.1611 264° West 342 394 36,000  Level Chicago Center
10:19AM 41.6483 -90.2947 264° West 358 412 36,000  Level Chicago Center
10:20AM 41.6383 -90.4272 264° West 361 415 36,000  Level Chicago Center
10:21AM 41.6281 -90.5567 264° West 353 406 36,000  Level Chicago Center
10:22AM 41.6161 -90.6903 263° West 354 407 36,000  Level Chicago Center
10:23AM 41.6058 -90.8217 264° West 357 411 36,000  Level Chicago Center
10:24AM 41.5933 -90.9789 264° West 358 412 36,000  Level Chicago Center
10:25AM 41.5822 -91.1103 264° West 360 414 36,000  Level Chicago Center
10:26AM 41.5706 -91.2431 263° West 361 415 36,000  Level Chicago Center
10:27AM 41.5597 -91.3778 264° West 365 420 36,000  Level Chicago Center
10:28AM 41.5475 -91.5117 263° West 366 421 36,000  Level Chicago Center
10:29AM 41.5353 -91.6481 263° West 371 427 36,000  Level Chicago Center
10:30AM 41.5197 -91.8119 263° West 373 429 36,000 180 Level Chicago Center
10:31AM 41.5072 -91.9556 263° West 382 440 36,400 720 Climbing Chicago Center
10:33AM 41.4936 -92.1025 263° West 393 452 37,500 720 Climbing Chicago Center
10:34AM 41.4794 -92.2439 262° West 392 451 38,000 240 Climbing Chicago Center
10:35AM 41.4650 -92.4011 263° West 397 457 38,000  Level Chicago Center
10:36AM 41.4514 -92.5472 263° West 399 459 38,000  Level Chicago Center
10:36AM 41.4394 -92.6667 262° West 401 461 38,000  Level Minneapolis Center
10:37AM 41.4256 -92.8117 263° West 401 461 38,000  Level Minneapolis Center
10:38AM 41.4075 -92.9847 262° West 397 457 38,000  Level Minneapolis Center
10:40AM 41.3931 -93.1297 262° West 398 458 38,000  Level Minneapolis Center
10:41AM 41.3775 -93.2786 262° West 405 466 38,000  Level Minneapolis Center
10:42AM 41.3606 -93.4281 261° West 411 473 38,000  Level Minneapolis Center
10:43AM 41.3467 -93.5781 263° West 412 474 38,000  Level Minneapolis Center
10:44AM 41.3297 -93.7314 262° West 418 481 38,000  Level Minneapolis Center
10:45AM 41.3092 -93.9172 262° West 425 489 38,000  Level Minneapolis Center
10:46AM 41.2928 -94.0719 262° West 426 490 38,000  Level Minneapolis Center
10:47AM 41.2758 -94.2214 261° West 426 490 38,000  Level Minneapolis Center
10:48AM 41.2581 -94.3772 261° West 427 491 38,000  Level Minneapolis Center
10:49AM 41.2414 -94.5325 262° West 425 489 38,000  Level Minneapolis Center
10:50AM 41.2192 -94.7200 261° West 426 490 38,000  Level Minneapolis Center
10:51AM 41.2000 -94.8769 261° West 428 493 38,000  Level Minneapolis Center
10:52AM 41.1808 -95.0336 261° West 429 494 38,000  Level Minneapolis Center
10:53AM 41.1628 -95.1917 261° West 432 497 38,000  Level Minneapolis Center
10:54AM 41.1428 -95.3478 260° West 430 495 38,000  Level Minneapolis Center
10:55AM 41.1197 -95.5356 261° West 430 495 38,000  Level Minneapolis Center
10:56AM 41.0994 -95.6911 260° West 427 491 38,000  Level Minneapolis Center
10:57AM 41.0800 -95.8489 261° West 428 493 38,000  Level Minneapolis Center
10:58AM 41.0608 -96.0067 261° West 428 493 38,000  Level Minneapolis Center
10:59AM 41.0400 -96.1636 260° West 429 494 38,000  Level Minneapolis Center
11:00AM 41.0156 -96.3522 260° West 430 495 38,000  Level Minneapolis Center
11:01AM 40.9942 -96.5086 260° West 430 495 38,000  Level Minneapolis Center
11:02AM 40.9728 -96.6669 260° West 433 498 38,000  Level Minneapolis Center
11:03AM 40.9519 -96.8228 260° West 431 496 38,000  Level Minneapolis Center
11:04AM 40.9300 -96.9797 260° West 433 498 38,000  Level Minneapolis Center
11:05AM 40.9086 -97.1378 260° West 435 501 38,000  Level Minneapolis Center
11:06AM 40.8878 -97.2925 260° West 431 496 38,000  Level Minneapolis Center
11:07AM 40.8644 -97.4517 259° West 426 490 38,000  Level Minneapolis Center
11:08AM 40.8436 -97.6064 260° West 427 491 38,000  Level Minneapolis Center
11:10AM 40.8258 -97.7289 259° West 424 488 38,000  Level Minneapolis Center
11:11AM 40.7931 -97.9439 259° West 424 488 38,000  Level Minneapolis Center
11:12AM 40.7706 -98.0992 259° West 428 493 38,000  Level Minneapolis Center
11:13AM 40.7472 -98.2561 259° West 431 496 38,000  Level Minneapolis Center
11:14AM 40.7250 -98.4122 259° West 431 496 38,000  Level Minneapolis Center
11:15AM 40.7006 -98.5675 258° West 430 495 38,000  Level Minneapolis Center
11:16AM 40.6769 -98.7211 259° West 427 491 38,000  Level Minneapolis Center
11:17AM 40.6536 -98.8753 259° West 425 489 38,000  Level Minneapolis Center
11:18AM 40.6300 -99.0283 259° West 424 488 38,000  Level Minneapolis Center
11:19AM 40.6058 -99.1811 258° West 424 488 38,000  Level Minneapolis Center
11:20AM 40.5814 -99.3342 258° West 425 489 38,000  Level Minneapolis Center
11:21AM 40.5567 -99.4878 258° West 427 491 38,000  Level Minneapolis Center
11:22AM 40.5322 -99.6414 258° West 427 491 38,000  Level Minneapolis Center
11:23AM 40.5028 -99.8200 258° West 419 482 38,000  Level Minneapolis Center
11:24AM 40.4783 -99.9706 258° West 420 483 38,000  Level Minneapolis Center
11:25AM 40.4533 -100.1197 258° West 419 482 38,000  Level Minneapolis Center
11:26AM 40.4289 -100.2719 258° West 421 484 38,000  Level Minneapolis Center
11:26AM 40.4242 -100.2944 255° West 421 484 38,000  Level Denver Center
11:27AM 40.3953 -100.4628 257° West 422 486 38,000  Level Denver Center
11:28AM 40.3714 -100.6058 258° West 417 480 38,000  Level Denver Center
11:29AM 40.3422 -100.7711 257° West 415 478 38,000  Level Denver Center
11:30AM 40.3181 -100.9106 257° West 411 473 38,000  Level Denver Center
11:31AM 40.2883 -101.0756 257° West 413 475 38,000  Level Denver Center
11:32AM 40.2644 -101.2172 258° West 415 478 38,000  Level Denver Center
11:33AM 40.2356 -101.3828 257° West 418 481 38,000  Level Denver Center
11:34AM 40.2097 -101.5236 257° West 416 479 38,000  Level Denver Center
11:35AM 40.1853 -101.6661 257° West 417 480 38,000  Level Denver Center
11:37AM 40.1553 -101.8281 256° West 411 473 38,000  Level Denver Center
11:38AM 40.1300 -101.9653 256° West 406 467 38,000  Level Denver Center
11:39AM 40.0989 -102.1231 256° West 402 463 38,000  Level Denver Center
11:40AM 40.0742 -102.2603 257° West 405 466 38,000  Level Denver Center
11:41AM 40.0428 -102.4192 256° West 407 468 38,000  Level Denver Center
11:42AM 40.0164 -102.5569 256° West 409 471 38,000  Level Denver Center
11:43AM 39.9861 -102.7164 256° West 412 474 38,000  Level Denver Center
11:44AM 39.9589 -102.8642 257° West 415 478 38,000  Level Denver Center
11:45AM 39.9300 -103.0111 256° West 417 480 38,000  Level Denver Center
11:46AM 39.9006 -103.1581 255° West 417 480 38,000  Level Denver Center
11:47AM 39.8714 -103.3056 256° West 418 481 38,000  Level Denver Center
11:48AM 39.8381 -103.4772 256° West 418 481 38,000  Level Denver Center
11:49AM 39.8089 -103.6239 256° West 415 478 38,000  Level Denver Center
11:50AM 39.7792 -103.7686 255° West 414 476 38,000  Level Denver Center
11:51AM 39.7503 -103.9150 256° West 409 471 38,000  Level Denver Center
11:52AM 39.7211 -104.0572 255° West 404 465 38,000  Level Denver Center
11:53AM 39.6917 -104.2011 255° West 408 470 38,000  Level Denver Center
11:54AM 39.6619 -104.3456 255° West 409 471 38,000  Level Denver Center
11:55AM 39.6267 -104.5147 255° West 413 475 38,000  Level Denver Center
11:56AM 39.5956 -104.6611 255° West 417 480 38,000  Level Denver Center
11:57AM 39.5667 -104.7917 254° West 412 474 38,000  Level Denver Center
11:58AM 39.5367 -104.9358 255° West 410 472 38,000  Level Denver Center
11:59AM 39.4994 -105.1069 254° West 419 482 38,000  Level Denver Center
12:00PM 39.4678 -105.2522 254° West 415 478 38,000  Level Denver Center
12:01PM 39.4369 -105.3956 254° West 410 472 38,000  Level Denver Center
12:02PM 39.4053 -105.5431 255° West 417 480 38,000  Level Denver Center
12:03PM 39.3744 -105.6856 254° West 410 472 38,000  Level Denver Center
12:04PM 39.3419 -105.8300 254° West 413 475 38,000  Level Denver Center
12:05PM 39.3106 -105.9739 254° West 414 476 38,000  Level Denver Center
12:07PM 39.2711 -106.1403 253° West 410 472 38,000  Level Denver Center
12:08PM 39.2442 -106.2769 256° West 412 474 38,000  Level Denver Center
12:09PM 39.2061 -106.4353 253° West 412 474 38,000  Level Denver Center
12:10PM 39.1764 -106.5703 254° West 409 471 38,000  Level Denver Center
12:11PM 39.1442 -106.7061 253° West 411 473 38,000  Level Denver Center
12:12PM 39.1069 -106.8656 253° West 414 476 38,000  Level Denver Center
12:13PM 39.0750 -107.0014 253° West 414 476 38,000  Level Denver Center
12:14PM 39.0178 -107.2461 253° West 410 472 38,000  Level Salt Lake Center
12:15PM 39.0056 -107.2933 252° West 416 479 38,000  Level Denver Center
12:16PM 38.9678 -107.4494 253° West 409 471 38,000  Level Denver Center
12:17PM 38.9356 -107.5833 253° West 411 473 38,000  Level Denver Center
12:18PM 38.8994 -107.7392 253° West 408 470 38,000  Level Denver Center
12:19PM 38.8675 -107.8719 253° West 407 468 38,000  Level Denver Center
12:20PM 38.8297 -108.0281 253° West 408 470 38,000  Level Denver Center
12:21PM 38.7978 -108.1592 253° West 402 463 38,000  Level Denver Center
12:22PM 38.7642 -108.2919 252° West 407 468 38,000  Level Denver Center
12:23PM 38.7267 -108.4469 253° West 408 470 38,000  Level Denver Center
12:24PM 38.6942 -108.5783 252° West 404 465 38,000  Level Denver Center
12:26PM 38.6325 -108.8172 252° West 403 464 38,000  Level Salt Lake Center
12:26PM 38.6219 -108.8606 253° West 401 461 38,000  Level Denver Center
12:27PM 38.5831 -109.0139 252° West 402 463 38,000  Level Denver Center
12:28PM 38.5503 -109.1439 252° West 402 463 38,000  Level Denver Center
12:29PM 38.5111 -109.2975 252° West 407 468 38,000  Level Denver Center
12:30PM 38.4772 -109.4283 252° West 405 466 38,000  Level Denver Center
12:31PM 38.4381 -109.5792 252° West 402 463 38,000  Level Denver Center
12:32PM 38.4039 -109.7083 251° West 403 464 38,000  Level Denver Center
12:33PM 38.3694 -109.8364 251° West 400 460 38,000  Level Denver Center
12:34PM 38.3311 -109.9858 252° West 395 455 38,000  Level Denver Center
12:35PM 38.2914 -110.1106 248° West 396 456 38,000 -240 Level Denver Center
12:37PM 38.2342 -110.2525 243° Southwest 405 466 37,500 -780 Descending Denver Center
12:38PM 38.1675 -110.4125 242° Southwest 401 461 36,300 -720 Descending Denver Center
12:39PM 38.1217 -110.5278 243° Southwest 384 442 36,000 -180 Descending Denver Center
12:40PM 38.0661 -110.6625 242° Southwest 386 444 36,000  Level Denver Center
12:41PM 38.0175 -110.7772 242° Southwest 386 444 36,000  Level Denver Center
12:42PM 37.9636 -110.9069 242° Southwest 386 444 36,000 -480 Level Denver Center
12:43PM 37.9139 -111.0283 243° Southwest 389 448 35,000 -1,020 Descending Denver Center
12:44PM 37.8536 -111.1719 242° Southwest 387 445 33,700 -1,200 Descending Denver Center
12:45PM 37.7950 -111.3131 242° Southwest 380 437 32,500 -840 Descending Salt Lake Center
12:46PM 37.7464 -111.4294 242° Southwest 376 433 32,000 -300 Descending Salt Lake Center
12:47PM 37.6953 -111.5489 242° Southwest 384 442 32,000  Level Salt Lake Center
12:48PM 37.6450 -111.6656 241° Southwest 381 438 32,000  Level Salt Lake Center
12:49PM 37.5956 -111.7806 242° Southwest 376 433 32,000  Level Salt Lake Center
12:50PM 37.5756 -111.8264 241° Southwest 374 430 32,000  Level Denver Center
12:50PM 37.5467 -111.8967 243° Southwest 375 432 32,000  Level Salt Lake Center
12:51PM 37.4939 -112.0181 241° Southwest 392 451 32,000  Level Salt Lake Center
12:52PM 37.4300 -112.1656 241° Southwest 398 458 32,000  Level Salt Lake Center
12:53PM 37.3775 -112.2881 242° Southwest 398 458 32,000 -300 Level Salt Lake Center
12:55PM 37.3250 -112.4089 241° Southwest 394 453 31,500 -780 Descending Salt Lake Center
12:56PM 37.2708 -112.5314 241° Southwest 396 456 30,500 -1,020 Descending Salt Lake Center
12:57PM 37.2161 -112.6578 241° Southwest 402 463 29,500 -960 Descending Salt Lake Center
12:58PM 37.1606 -112.7842 241° Southwest 406 467 28,600 -780 Descending Salt Lake Center
12:59PM 37.1047 -112.9111 241° Southwest 411 473 28,000 -300 Descending Salt Lake Center
01:00PM 37.0483 -113.0389 241° Southwest 416 479 28,000  Level Salt Lake Center
01:01PM 36.9922 -113.1650 241° Southwest 415 478 28,000 -360 Level Salt Lake Center
01:02PM 36.9358 -113.2911 241° Southwest 415 478 27,300 -1,320 Descending Salt Lake Center
01:03PM 36.8703 -113.4378 241° Southwest 406 467 25,300 -1,860 Descending Salt Lake Center
01:04PM 36.8161 -113.5569 240° Southwest 397 457 23,500 -2,100 Descending Salt Lake Center
01:05PM 36.7542 -113.6931 240° Southwest 381 438 20,700 -2,040 Descending Los Angeles Center
01:06PM 36.7044 -113.8039 241° Southwest 368 423 19,100 -1,260 Descending Los Angeles Center
01:07PM 36.6544 -113.9147 241° Southwest 368 423 18,100 -1,020 Descending Los Angeles Center
01:08PM 36.6042 -114.0222 240° Southwest 360 414 17,100 -960 Descending Los Angeles Center
01:09PM 36.5561 -114.1314 241° Southwest 361 415 16,100 -1,020 Descending Los Angeles Center
01:10PM 36.5106 -114.2367 242° Southwest 364 419 15,200 -1,380 Descending Los Angeles Center
01:11PM 36.4794 -114.3008 239° Southwest 350 403 14,200 -1,680 Descending Los Angeles Center
01:12PM 36.4308 -114.4033 240° Southwest 343 395 12,500 -1,260 Descending Los Angeles Center
01:12PM 36.4128 -114.4403 239° Southwest 345 397 12,200 -480 Descending Los Angeles Center
01:13PM 36.3744 -114.4894 226° Southwest 301 346 12,000 -120 Descending Los Angeles Center
01:13PM 36.3303 -114.4956 186° South 319 367 12,100 -480 Climbing Los Angeles Center
01:14PM 36.2983 -114.5072 196° South 303 349 11,600 -1,080 Descending Los Angeles Center
01:14PM 36.2519 -114.5289 201° Southwest 304 350 11,000 -1,140 Descending Los Angeles Center
01:15PM 36.2289 -114.5656 232° Southwest 288 331 10,500 -1,200 Descending Los Angeles Center
01:15PM 36.1978 -114.6014 223° Southwest 288 331 9,800 -1,380 Descending Los Angeles Center
01:16PM 36.1736 -114.6375 230° Southwest 283 326 9,100 -1,200 Descending Los Angeles Center
01:16PM 36.1622 -114.6822 253° West 279 321 8,600 -840 Descending Los Angeles Center
01:17PM 36.1539 -114.7242 256° West 262 302 8,300 -540 Descending Los Angeles Center
01:17PM 36.1436 -114.7831 258° West 254 292 8,100 -300 Descending Los Angeles Center
01:18PM 36.1431 -114.8025 268° West 225 259 8,000 -720 Descending Los Angeles Center
01:18PM 36.1383 -114.8611 264° West 235 270 7,400 -900 Descending Los Angeles Center
01:19PM 36.1375 -114.8950 268° West 227 261 7,000 -900 Descending Los Angeles Center
01:19PM 36.1336 -114.9378 264° West 226 260 6,500 -780 Descending Los Angeles Center
01:20PM 36.1322 -114.9606 266° West 219 252 6,300 -900 Descending Los Angeles Center
01:20PM 36.1347 -115.0072 274° West 210 242 5,600 -1,020 Descending Los Angeles Center
01:22PM 36.1383 -115.0647 274° West 182 209 4,500 -1,140 Descending Los Angeles Center
01:23PM 36.1356 -115.1153 266° West 164 189 3,300 -1,200 Descending Los Angeles Center
01:23PM 36.1258 -115.1386 243° Southwest 145 167 2,900 -900 Descending Los Angeles Center
01:24PM 36.1078 -115.1500 207° Southwest 154 177 2,400 -720 Descending Los Angeles Center
01:26PM 36.0801 -115.1523 219° Southwest  Level Estimated